sensor_id;sensor_type;location;lat;lon;timestamp;pressure;altitude;pressure_sealevel;temperature;humidity
45403;BME280;47427;51.976;5.326;2022-10-10T00:01:45;101422.88;;;9.19;79.64
45403;BME280;47427;51.976;5.326;2022-10-10T00:05:08;101409.25;;;9.05;80.70
45403;BME280;47427;51.976;5.326;2022-10-10T00:08:31;101408.94;;;8.97;81.18
45403;BME280;47427;51.976;5.326;2022-10-10T00:11:54;101418.75;;;9.03;81.16
45403;BME280;47427;51.976;5.326;2022-10-10T00:15:16;101398.03;;;8.86;81.97
45403;BME280;47427;51.976;5.326;2022-10-10T00:18:40;101417.59;;;8.96;81.86
45403;BME280;47427;51.976;5.326;2022-10-10T00:22:03;101398.38;;;8.96;81.45
45403;BME280;47427;51.976;5.326;2022-10-10T00:25:25;101379.38;;;8.79;81.80
45403;BME280;47427;51.976;5.326;2022-10-10T00:28:48;101411.34;;;8.93;82.03
45403;BME280;47427;51.976;5.326;2022-10-10T00:32:11;101405.09;;;8.89;81.97
45403;BME280;47427;51.976;5.326;2022-10-10T00:35:34;101412.88;;;8.87;82.36
45403;BME280;47427;51.976;5.326;2022-10-10T00:38:56;101395.97;;;8.79;82.33
45403;BME280;47427;51.976;5.326;2022-10-10T00:42:19;101397.56;;;8.76;82.75
45403;BME280;47427;51.976;5.326;2022-10-10T00:45:44;101400.03;;;8.73;83.10
45403;BME280;47427;51.976;5.326;2022-10-10T00:49:13;101385.94;;;8.69;83.04
45403;BME280;47427;51.976;5.326;2022-10-10T00:52:36;101386.59;;;8.63;83.43
45403;BME280;47427;51.976;5.326;2022-10-10T00:56:00;101389.22;;;8.63;83.68
45403;BME280;47427;51.976;5.326;2022-10-10T00:59:25;101389.38;;;8.68;83.30
45403;BME280;47427;51.976;5.326;2022-10-10T01:02:48;101376.06;;;8.62;83.83
45403;BME280;47427;51.976;5.326;2022-10-10T01:06:11;101382.16;;;8.62;83.74
45403;BME280;47427;51.976;5.326;2022-10-10T01:09:36;101374.84;;;8.54;84.01
45403;BME280;47427;51.976;5.326;2022-10-10T01:13:31;101373.75;;;8.49;84.62
45403;BME280;47427;51.976;5.326;2022-10-10T01:17:21;101372.81;;;8.48;84.24
45403;BME280;47427;51.976;5.326;2022-10-10T01:21:13;101371.94;;;8.48;84.75
45403;BME280;47427;51.976;5.326;2022-10-10T01:28:36;101356.97;;;8.43;84.22
45403;BME280;47427;51.976;5.326;2022-10-10T01:32:14;101367.34;;;8.42;85.06
45403;BME280;47427;51.976;5.326;2022-10-10T01:35:52;101365.34;;;8.36;84.85
45403;BME280;47427;51.976;5.326;2022-10-10T01:39:38;101354.28;;;8.42;84.96
45403;BME280;47427;51.976;5.326;2022-10-10T01:43:05;101362.03;;;8.40;85.35
45403;BME280;47427;51.976;5.326;2022-10-10T01:46:32;101358.13;;;8.31;86.11
45403;BME280;47427;51.976;5.326;2022-10-10T01:49:58;101354.41;;;8.25;86.28
45403;BME280;47427;51.976;5.326;2022-10-10T02:00:53;101346.56;;;8.25;87.13
45403;BME280;47427;51.976;5.326;2022-10-10T02:04:33;101346.38;;;8.21;87.68
45403;BME280;47427;51.976;5.326;2022-10-10T02:08:20;101348.09;;;8.20;88.22
45403;BME280;47427;51.976;5.326;2022-10-10T02:11:47;101336.81;;;8.21;88.02
45403;BME280;47427;51.976;5.326;2022-10-10T02:15:18;101337.69;;;8.22;87.88
45403;BME280;47427;51.976;5.326;2022-10-10T02:19:05;101335.91;;;8.21;88.05
45403;BME280;47427;51.976;5.326;2022-10-10T02:22:29;101312.75;;;8.09;88.37
45403;BME280;47427;51.976;5.326;2022-10-10T02:25:54;101326.09;;;8.15;88.75
45403;BME280;47427;51.976;5.326;2022-10-10T02:29:29;101319.94;;;8.15;88.79
45403;BME280;47427;51.976;5.326;2022-10-10T02:33:00;101306.72;;;8.10;88.95
45403;BME280;47427;51.976;5.326;2022-10-10T02:36:26;101312.81;;;8.11;89.42
45403;BME280;47427;51.976;5.326;2022-10-10T02:39:55;101316.53;;;8.16;88.75
45403;BME280;47427;51.976;5.326;2022-10-10T02:43:19;101305.19;;;8.15;88.83
45403;BME280;47427;51.976;5.326;2022-10-10T02:46:42;101278.44;;;8.01;88.93
45403;BME280;47427;51.976;5.326;2022-10-10T02:50:05;101286.59;;;8.09;88.74
45403;BME280;47427;51.976;5.326;2022-10-10T02:53:28;101288.25;;;8.07;89.31
45403;BME280;47427;51.976;5.326;2022-10-10T02:56:51;101298.50;;;8.02;89.76
45403;BME280;47427;51.976;5.326;2022-10-10T03:00:15;101278.50;;;8.03;89.96
45403;BME280;47427;51.976;5.326;2022-10-10T03:03:38;101287.88;;;7.98;90.23
45403;BME280;47427;51.976;5.326;2022-10-10T03:07:02;101281.88;;;8.00;90.06
45403;BME280;47427;51.976;5.326;2022-10-10T03:10:24;101271.34;;;7.99;90.01
45403;BME280;47427;51.976;5.326;2022-10-10T03:13:47;101276.50;;;7.97;90.65
45403;BME280;47427;51.976;5.326;2022-10-10T03:17:10;101268.53;;;7.94;90.67
45403;BME280;47427;51.976;5.326;2022-10-10T03:20:33;101275.41;;;7.92;90.84
45403;BME280;47427;51.976;5.326;2022-10-10T03:23:56;101293.78;;;7.94;91.27
45403;BME280;47427;51.976;5.326;2022-10-10T03:27:19;101294.66;;;7.94;90.86
45403;BME280;47427;51.976;5.326;2022-10-10T03:30:42;101288.44;;;7.91;91.12
45403;BME280;47427;51.976;5.326;2022-10-10T03:34:05;101288.97;;;7.84;91.72
45403;BME280;47427;51.976;5.326;2022-10-10T03:37:28;101277.34;;;7.77;91.99
45403;BME280;47427;51.976;5.326;2022-10-10T03:40:50;101281.81;;;7.79;91.69
45403;BME280;47427;51.976;5.326;2022-10-10T03:44:13;101284.25;;;7.75;92.56
45403;BME280;47427;51.976;5.326;2022-10-10T03:47:35;101289.31;;;7.72;92.85
45403;BME280;47427;51.976;5.326;2022-10-10T03:50:58;101276.06;;;7.67;92.85
45403;BME280;47427;51.976;5.326;2022-10-10T03:54:21;101275.78;;;7.61;93.07
45403;BME280;47427;51.976;5.326;2022-10-10T03:57:43;101272.97;;;7.56;93.45
45403;BME280;47427;51.976;5.326;2022-10-10T04:01:06;101275.56;;;7.56;93.60
45403;BME280;47427;51.976;5.326;2022-10-10T04:04:29;101279.06;;;7.57;94.13
45403;BME280;47427;51.976;5.326;2022-10-10T04:07:51;101264.66;;;7.46;94.45
45403;BME280;47427;51.976;5.326;2022-10-10T04:11:14;101278.13;;;7.55;94.22
45403;BME280;47427;51.976;5.326;2022-10-10T04:14:37;101276.94;;;7.48;94.48
45403;BME280;47427;51.976;5.326;2022-10-10T04:17:59;101254.63;;;7.35;95.02
45403;BME280;47427;51.976;5.326;2022-10-10T04:21:22;101271.25;;;7.37;95.46
45403;BME280;47427;51.976;5.326;2022-10-10T04:24:45;101262.56;;;7.38;95.74
45403;BME280;47427;51.976;5.326;2022-10-10T04:28:13;101269.66;;;7.41;95.13
45403;BME280;47427;51.976;5.326;2022-10-10T04:31:55;101271.88;;;7.32;95.99
45403;BME280;47427;51.976;5.326;2022-10-10T04:35:18;101264.91;;;7.32;96.02
45403;BME280;47427;51.976;5.326;2022-10-10T04:38:40;101249.66;;;7.22;96.36
45403;BME280;47427;51.976;5.326;2022-10-10T04:42:03;101269.94;;;7.28;96.39
45403;BME280;47427;51.976;5.326;2022-10-10T04:45:45;101264.97;;;7.34;96.35
45403;BME280;47427;51.976;5.326;2022-10-10T04:49:07;101243.16;;;7.14;96.76
45403;BME280;47427;51.976;5.326;2022-10-10T04:52:30;101253.69;;;7.15;96.88
45403;BME280;47427;51.976;5.326;2022-10-10T04:55:53;101251.22;;;7.19;96.56
45403;BME280;47427;51.976;5.326;2022-10-10T04:59:15;101256.59;;;7.22;96.31
45403;BME280;47427;51.976;5.326;2022-10-10T05:02:38;101272.41;;;7.25;96.76
45403;BME280;47427;51.976;5.326;2022-10-10T05:06:00;101267.94;;;7.22;97.28
45403;BME280;47427;51.976;5.326;2022-10-10T05:09:23;101257.34;;;7.19;97.08
45403;BME280;47427;51.976;5.326;2022-10-10T05:12:46;101253.56;;;7.12;97.39
45403;BME280;47427;51.976;5.326;2022-10-10T05:16:09;101266.06;;;7.20;97.28
45403;BME280;47427;51.976;5.326;2022-10-10T05:19:34;101258.03;;;7.15;97.70
45403;BME280;47427;51.976;5.326;2022-10-10T05:22:57;101258.56;;;7.08;98.30
45403;BME280;47427;51.976;5.326;2022-10-10T05:26:20;101256.56;;;7.02;98.55
45403;BME280;47427;51.976;5.326;2022-10-10T05:29:42;101258.47;;;7.06;98.51
45403;BME280;47427;51.976;5.326;2022-10-10T05:33:05;101263.69;;;7.06;99.43
45403;BME280;47427;51.976;5.326;2022-10-10T05:36:28;101257.59;;;7.06;98.41
45403;BME280;47427;51.976;5.326;2022-10-10T05:39:51;101263.78;;;7.08;98.66
45403;BME280;47427;51.976;5.326;2022-10-10T05:43:14;101237.84;;;6.93;98.23
45403;BME280;47427;51.976;5.326;2022-10-10T05:46:36;101251.34;;;7.02;98.35
45403;BME280;47427;51.976;5.326;2022-10-10T05:49:59;101251.97;;;6.97;98.65
45403;BME280;47427;51.976;5.326;2022-10-10T05:53:24;101260.72;;;6.99;98.91
45403;BME280;47427;51.976;5.326;2022-10-10T05:56:47;101255.44;;;6.97;98.98
45403;BME280;47427;51.976;5.326;2022-10-10T06:00:11;101267.06;;;7.04;98.87
45403;BME280;47427;51.976;5.326;2022-10-10T06:03:34;101279.44;;;7.08;98.50
45403;BME280;47427;51.976;5.326;2022-10-10T06:06:57;101277.72;;;7.08;98.44
45403;BME280;47427;51.976;5.326;2022-10-10T06:10:20;101275.97;;;7.09;98.55
45403;BME280;47427;51.976;5.326;2022-10-10T06:14:02;101274.34;;;7.11;98.73
45403;BME280;47427;51.976;5.326;2022-10-10T06:17:25;101273.53;;;7.12;99.08
45403;BME280;47427;51.976;5.326;2022-10-10T06:20:48;101282.63;;;7.20;98.82
45403;BME280;47427;51.976;5.326;2022-10-10T06:24:11;101277.31;;;7.19;99.12
45403;BME280;47427;51.976;5.326;2022-10-10T06:27:33;101285.09;;;7.36;98.48
45403;BME280;47427;51.976;5.326;2022-10-10T06:31:01;101274.88;;;7.41;97.68
45403;BME280;47427;51.976;5.326;2022-10-10T06:34:24;101272.56;;;7.47;97.38
45403;BME280;47427;51.976;5.326;2022-10-10T06:37:46;101284.59;;;7.63;97.23
45403;BME280;47427;51.976;5.326;2022-10-10T06:41:10;101281.47;;;7.72;96.64
45403;BME280;47427;51.976;5.326;2022-10-10T06:44:33;101287.53;;;7.90;96.84
45403;BME280;47427;51.976;5.326;2022-10-10T06:47:56;101292.59;;;8.07;96.33
45403;BME280;47427;51.976;5.326;2022-10-10T06:51:18;101279.84;;;8.14;96.58
45403;BME280;47427;51.976;5.326;2022-10-10T06:54:41;101299.28;;;8.40;95.90
45403;BME280;47427;51.976;5.326;2022-10-10T06:58:04;101305.50;;;8.63;95.54
45403;BME280;47427;51.976;5.326;2022-10-10T07:01:27;101296.91;;;8.88;94.86
45403;BME280;47427;51.976;5.326;2022-10-10T07:04:49;101296.91;;;10.81;90.90
45403;BME280;47427;51.976;5.326;2022-10-10T07:08:12;101293.91;;;11.53;87.74
45403;BME280;47427;51.976;5.326;2022-10-10T07:11:35;101296.41;;;11.20;87.16
45403;BME280;47427;51.976;5.326;2022-10-10T07:14:58;101301.16;;;11.62;85.60
45403;BME280;47427;51.976;5.326;2022-10-10T07:18:21;101299.16;;;11.85;82.99
45403;BME280;47427;51.976;5.326;2022-10-10T07:21:43;101295.63;;;12.83;81.58
45403;BME280;47427;51.976;5.326;2022-10-10T07:25:06;101298.94;;;14.89;74.72
45403;BME280;47427;51.976;5.326;2022-10-10T07:28:29;101310.72;;;15.74;69.73
45403;BME280;47427;51.976;5.326;2022-10-10T07:31:52;101310.34;;;17.17;65.37
45403;BME280;47427;51.976;5.326;2022-10-10T07:35:18;101300.19;;;18.11;62.32
45403;BME280;47427;51.976;5.326;2022-10-10T07:38:41;101305.44;;;17.91;59.85
45403;BME280;47427;51.976;5.326;2022-10-10T07:42:04;101304.38;;;17.60;60.92
45403;BME280;47427;51.976;5.326;2022-10-10T07:45:26;101314.50;;;16.80;62.33
45403;BME280;47427;51.976;5.326;2022-10-10T07:48:49;101311.75;;;16.72;62.54
45403;BME280;47427;51.976;5.326;2022-10-10T07:52:12;101310.47;;;16.29;63.21
45403;BME280;47427;51.976;5.326;2022-10-10T07:55:38;101312.03;;;15.41;65.19
45403;BME280;47427;51.976;5.326;2022-10-10T07:59:00;101333.97;;;15.99;65.07
45403;BME280;47427;51.976;5.326;2022-10-10T08:02:23;101330.56;;;16.11;64.17
45403;BME280;47427;51.976;5.326;2022-10-10T08:05:46;101333.44;;;15.61;65.42
45403;BME280;47427;51.976;5.326;2022-10-10T08:09:09;101332.66;;;15.68;65.46
45403;BME280;47427;51.976;5.326;2022-10-10T08:12:32;101325.38;;;16.22;64.08
45403;BME280;47427;51.976;5.326;2022-10-10T08:15:54;101329.63;;;16.92;62.43
45403;BME280;47427;51.976;5.326;2022-10-10T08:19:17;101320.47;;;17.95;60.77
45403;BME280;47427;51.976;5.326;2022-10-10T08:22:40;101323.00;;;20.07;54.10
45403;BME280;47427;51.976;5.326;2022-10-10T08:26:07;101324.34;;;21.67;50.33
45403;BME280;47427;51.976;5.326;2022-10-10T08:29:31;101331.44;;;22.37;48.46
45403;BME280;47427;51.976;5.326;2022-10-10T08:32:54;101332.13;;;23.06;46.32
45403;BME280;47427;51.976;5.326;2022-10-10T08:36:21;101330.19;;;23.15;45.54
45403;BME280;47427;51.976;5.326;2022-10-10T08:39:44;101327.81;;;25.05;40.96
45403;BME280;47427;51.976;5.326;2022-10-10T08:43:08;101323.25;;;26.62;38.05
45403;BME280;47427;51.976;5.326;2022-10-10T08:50:23;101329.41;;;25.13;39.42
45403;BME280;47427;51.976;5.326;2022-10-10T08:53:48;101347.75;;;25.62;39.86
45403;BME280;47427;51.976;5.326;2022-10-10T08:57:28;101346.91;;;23.75;42.54
45403;BME280;47427;51.976;5.326;2022-10-10T09:01:19;101348.63;;;22.80;44.35
45403;BME280;47427;51.976;5.326;2022-10-10T09:04:42;101354.06;;;21.31;47.17
45403;BME280;47427;51.976;5.326;2022-10-10T09:08:23;101352.78;;;20.78;50.18
45403;BME280;47427;51.976;5.326;2022-10-10T09:15:36;101350.69;;;19.75;50.83
45403;BME280;47427;51.976;5.326;2022-10-10T09:19:58;101360.53;;;19.02;54.12
45403;BME280;47427;51.976;5.326;2022-10-10T09:27:29;101359.38;;;17.87;57.59
45403;BME280;47427;51.976;5.326;2022-10-10T09:30:56;101353.00;;;17.57;58.96
45403;BME280;47427;51.976;5.326;2022-10-10T09:34:44;101363.53;;;17.37;59.80
45403;BME280;47427;51.976;5.326;2022-10-10T09:38:33;101352.75;;;17.13;60.55
45403;BME280;47427;51.976;5.326;2022-10-10T09:42:00;101362.66;;;17.44;60.70
45403;BME280;47427;51.976;5.326;2022-10-10T09:45:34;101376.78;;;17.39;61.23
45403;BME280;47427;51.976;5.326;2022-10-10T09:48:58;101388.16;;;17.24;60.92
45403;BME280;47427;51.976;5.326;2022-10-10T09:52:28;101389.72;;;16.99;62.23
45403;BME280;47427;51.976;5.326;2022-10-10T09:55:50;101386.38;;;17.18;62.93
45403;BME280;47427;51.976;5.326;2022-10-10T09:59:44;101383.00;;;17.44;62.14
45403;BME280;47427;51.976;5.326;2022-10-10T10:03:18;101382.19;;;17.55;61.40
45403;BME280;47427;51.976;5.326;2022-10-10T10:06:49;101376.34;;;18.24;60.35
45403;BME280;47427;51.976;5.326;2022-10-10T10:10:20;101383.34;;;20.12;56.54
45403;BME280;47427;51.976;5.326;2022-10-10T10:14:02;101383.28;;;20.29;54.07
45403;BME280;47427;51.976;5.326;2022-10-10T10:17:24;101390.63;;;21.25;51.85
45403;BME280;47427;51.976;5.326;2022-10-10T10:20:51;101406.88;;;20.95;51.77
45403;BME280;47427;51.976;5.326;2022-10-10T10:24:21;101411.53;;;20.69;53.75
45403;BME280;47427;51.976;5.326;2022-10-10T10:27:45;101411.91;;;19.77;54.98
45403;BME280;47427;51.976;5.326;2022-10-10T10:31:27;101433.19;;;19.61;55.43
45403;BME280;47427;51.976;5.326;2022-10-10T10:38:47;101424.28;;;19.93;54.84
45403;BME280;47427;51.976;5.326;2022-10-10T10:50:24;101406.31;;;25.84;42.15
45403;BME280;47427;51.976;5.326;2022-10-10T10:58:00;101424.81;;;23.11;46.04
45403;BME280;47427;51.976;5.326;2022-10-10T11:05:36;101439.47;;;22.22;50.62
45403;BME280;47427;51.976;5.326;2022-10-10T11:09:10;101456.72;;;20.87;52.35
45403;BME280;47427;51.976;5.326;2022-10-10T11:16:23;101454.50;;;19.51;56.85
45403;BME280;47427;51.976;5.326;2022-10-10T11:20:05;101447.41;;;18.97;59.43
45403;BME280;47427;51.976;5.326;2022-10-10T11:24:21;101460.66;;;18.74;61.14
45403;BME280;47427;51.976;5.326;2022-10-10T11:27:33;101446.34;;;18.40;62.11
45403;BME280;47427;51.976;5.326;2022-10-10T11:31:04;101451.63;;;18.26;62.85
45403;BME280;47427;51.976;5.326;2022-10-10T11:35:35;101461.41;;;18.36;63.11
45403;BME280;47427;51.976;5.326;2022-10-10T11:38:38;101459.81;;;19.49;60.84
45403;BME280;47427;51.976;5.326;2022-10-10T11:42:26;101463.19;;;20.35;58.96
45403;BME280;47427;51.976;5.326;2022-10-10T11:45:58;101459.63;;;20.35;58.35
45403;BME280;47427;51.976;5.326;2022-10-10T11:49:35;101456.28;;;19.79;60.01
45403;BME280;47427;51.976;5.326;2022-10-10T11:53:36;101443.00;;;19.21;60.94
45403;BME280;47427;51.976;5.326;2022-10-10T11:57:04;101446.41;;;18.63;63.34
45403;BME280;47427;51.976;5.326;2022-10-10T12:00:29;101458.72;;;18.26;64.83
45403;BME280;47427;51.976;5.326;2022-10-10T12:03:55;101467.44;;;17.98;66.12
45403;BME280;47427;51.976;5.326;2022-10-10T12:08:21;101474.53;;;18.07;66.42
45403;BME280;47427;51.976;5.326;2022-10-10T12:11:27;101470.16;;;18.17;66.19
45403;BME280;47427;51.976;5.326;2022-10-10T12:14:50;101479.81;;;18.03;67.67
45403;BME280;47427;51.976;5.326;2022-10-10T12:22:00;101482.06;;;17.46;69.65
45403;BME280;47427;51.976;5.326;2022-10-10T12:25:36;101482.78;;;17.26;71.35
45403;BME280;47427;51.976;5.326;2022-10-10T12:29:08;101482.94;;;17.43;72.30
45403;BME280;47427;51.976;5.326;2022-10-10T12:32:48;101480.38;;;17.55;71.56
45403;BME280;47427;51.976;5.326;2022-10-10T12:47:44;101501.44;;;15.89;89.16
45403;BME280;47427;51.976;5.326;2022-10-10T12:51:19;101503.31;;;15.96;92.95
45403;BME280;47427;51.976;5.326;2022-10-10T12:54:44;101506.38;;;16.25;92.83
45403;BME280;47427;51.976;5.326;2022-10-10T12:58:21;101513.47;;;16.30;92.60
45403;BME280;47427;51.976;5.326;2022-10-10T13:01:54;101515.34;;;16.37;91.75
45403;BME280;47427;51.976;5.326;2022-10-10T13:05:26;101530.44;;;16.45;91.02
45403;BME280;47427;51.976;5.326;2022-10-10T13:08:50;101531.16;;;16.31;89.36
45403;BME280;47427;51.976;5.326;2022-10-10T13:12:29;101538.22;;;16.32;88.27
45403;BME280;47427;51.976;5.326;2022-10-10T13:15:58;101541.91;;;16.41;88.00
45403;BME280;47427;51.976;5.326;2022-10-10T13:19:24;101541.91;;;16.41;87.35
45403;BME280;47427;51.976;5.326;2022-10-10T13:22:46;101553.44;;;16.48;87.17
45403;BME280;47427;51.976;5.326;2022-10-10T13:26:36;101554.13;;;16.32;87.16
45403;BME280;47427;51.976;5.326;2022-10-10T13:29:59;101560.88;;;16.13;87.91
45403;BME280;47427;51.976;5.326;2022-10-10T13:33:28;101562.41;;;15.95;88.40
45403;BME280;47427;51.976;5.326;2022-10-10T13:36:54;101577.25;;;15.87;89.03
45403;BME280;47427;51.976;5.326;2022-10-10T13:40:18;101574.41;;;15.73;89.03
45403;BME280;47427;51.976;5.326;2022-10-10T13:43:41;101578.94;;;15.80;88.67
45403;BME280;47427;51.976;5.326;2022-10-10T13:47:56;101589.16;;;15.60;88.90
45403;BME280;47427;51.976;5.326;2022-10-10T13:51:42;101596.91;;;15.50;89.57
45403;BME280;47427;51.976;5.326;2022-10-10T13:55:25;101598.59;;;15.46;89.85
45403;BME280;47427;51.976;5.326;2022-10-10T13:59:12;101596.75;;;15.42;90.01
45403;BME280;47427;51.976;5.326;2022-10-10T14:02:35;101616.25;;;15.02;90.88
45403;BME280;47427;51.976;5.326;2022-10-10T14:05:57;101637.31;;;14.56;91.94
45403;BME280;47427;51.976;5.326;2022-10-10T14:13:04;101650.28;;;14.11;93.88
45403;BME280;47427;51.976;5.326;2022-10-10T14:16:55;101676.59;;;14.09;93.62
45403;BME280;47427;51.976;5.326;2022-10-10T14:20:18;101672.28;;;14.13;93.64
45403;BME280;47427;51.976;5.326;2022-10-10T14:23:41;101694.34;;;14.15;92.76
45403;BME280;47427;51.976;5.326;2022-10-10T14:27:23;101716.25;;;14.12;92.58
45403;BME280;47427;51.976;5.326;2022-10-10T14:30:45;101724.88;;;14.05;93.17
45403;BME280;47427;51.976;5.326;2022-10-10T14:34:09;101714.13;;;14.32;93.23
45403;BME280;47427;51.976;5.326;2022-10-10T14:37:31;101719.78;;;14.47;91.60
45403;BME280;47427;51.976;5.326;2022-10-10T14:40:54;101733.19;;;14.54;90.32
45403;BME280;47427;51.976;5.326;2022-10-10T14:44:17;101722.69;;;14.57;88.79
45403;BME280;47427;51.976;5.326;2022-10-10T14:47:39;101721.59;;;14.48;88.35
45403;BME280;47427;51.976;5.326;2022-10-10T14:51:02;101726.00;;;14.49;87.30
45403;BME280;47427;51.976;5.326;2022-10-10T14:54:23;101743.59;;;14.85;86.39
45403;BME280;47427;51.976;5.326;2022-10-10T14:57:46;101732.78;;;15.14;85.65
45403;BME280;47427;51.976;5.326;2022-10-10T15:01:08;101744.56;;;15.28;84.96
45403;BME280;47427;51.976;5.326;2022-10-10T15:04:30;101743.97;;;15.43;84.08
45403;BME280;47427;51.976;5.326;2022-10-10T15:07:53;101752.31;;;15.63;83.54
45403;BME280;47427;51.976;5.326;2022-10-10T15:11:15;101764.41;;;15.94;83.02
45403;BME280;47427;51.976;5.326;2022-10-10T15:14:37;101757.69;;;16.12;81.63
45403;BME280;47427;51.976;5.326;2022-10-10T15:18:00;101764.75;;;16.11;81.22
45403;BME280;47427;51.976;5.326;2022-10-10T15:21:21;101771.91;;;16.17;80.16
45403;BME280;47427;51.976;5.326;2022-10-10T15:24:44;101772.91;;;16.23;80.25
45403;BME280;47427;51.976;5.326;2022-10-10T15:28:07;101781.03;;;16.34;80.04
45403;BME280;47427;51.976;5.326;2022-10-10T15:31:28;101786.34;;;16.34;79.04
45403;BME280;47427;51.976;5.326;2022-10-10T15:34:54;101785.31;;;16.28;79.11
45403;BME280;47427;51.976;5.326;2022-10-10T15:38:16;101795.84;;;16.23;78.72
45403;BME280;47427;51.976;5.326;2022-10-10T15:41:39;101805.44;;;15.71;79.00
45403;BME280;47427;51.976;5.326;2022-10-10T15:45:02;101803.97;;;15.05;80.88
45403;BME280;47427;51.976;5.326;2022-10-10T15:48:24;101824.06;;;14.62;82.39
45403;BME280;47427;51.976;5.326;2022-10-10T15:51:47;101828.41;;;14.28;83.39
45403;BME280;47427;51.976;5.326;2022-10-10T15:55:10;101827.09;;;14.11;84.17
45403;BME280;47427;51.976;5.326;2022-10-10T15:58:32;101826.41;;;13.86;84.75
45403;BME280;47427;51.976;5.326;2022-10-10T16:01:56;101834.81;;;13.73;85.42
45403;BME280;47427;51.976;5.326;2022-10-10T16:05:18;101837.03;;;13.59;85.67
45403;BME280;47427;51.976;5.326;2022-10-10T16:08:40;101842.00;;;13.48;86.11
45403;BME280;47427;51.976;5.326;2022-10-10T16:12:22;101849.44;;;13.33;86.30
45403;BME280;47427;51.976;5.326;2022-10-10T16:15:58;101863.69;;;13.12;86.75
45403;BME280;47427;51.976;5.326;2022-10-10T16:19:21;101864.25;;;13.02;87.05
45403;BME280;47427;51.976;5.326;2022-10-10T16:22:42;101871.72;;;12.90;87.69
45403;BME280;47427;51.976;5.326;2022-10-10T16:26:10;101880.34;;;12.84;87.65
45403;BME280;47427;51.976;5.326;2022-10-10T16:29:33;101885.47;;;12.81;88.05
45403;BME280;47427;51.976;5.326;2022-10-10T16:32:55;101887.13;;;12.77;88.52
45403;BME280;47427;51.976;5.326;2022-10-10T16:36:30;101892.59;;;12.58;88.58
45403;BME280;47427;51.976;5.326;2022-10-10T16:39:53;101900.13;;;12.47;89.30
45403;BME280;47427;51.976;5.326;2022-10-10T16:43:16;101919.16;;;12.40;89.62
45403;BME280;47427;51.976;5.326;2022-10-10T16:46:39;101918.28;;;12.40;89.55
45403;BME280;47427;51.976;5.326;2022-10-10T16:50:00;101917.91;;;12.29;89.66
45403;BME280;47427;51.976;5.326;2022-10-10T16:53:23;101916.19;;;12.07;90.10
45403;BME280;47427;51.976;5.326;2022-10-10T16:56:46;101940.25;;;11.93;90.48
45403;BME280;47427;51.976;5.326;2022-10-10T17:00:09;101944.59;;;11.70;90.82
45403;BME280;47427;51.976;5.326;2022-10-10T17:03:32;101961.50;;;11.55;91.38
45403;BME280;47427;51.976;5.326;2022-10-10T17:06:54;101964.34;;;11.38;91.84
45403;BME280;47427;51.976;5.326;2022-10-10T17:10:16;101968.44;;;11.32;91.95
45403;BME280;47427;51.976;5.326;2022-10-10T17:13:40;101972.75;;;11.30;91.94
45403;BME280;47427;51.976;5.326;2022-10-10T17:17:03;101989.84;;;11.20;92.63
45403;BME280;47427;51.976;5.326;2022-10-10T17:20:26;101985.38;;;10.96;92.48
45403;BME280;47427;51.976;5.326;2022-10-10T17:23:50;101977.31;;;10.72;93.00
45403;BME280;47427;51.976;5.326;2022-10-10T17:27:13;101993.34;;;10.59;93.00
45403;BME280;47427;51.976;5.326;2022-10-10T17:30:46;101991.47;;;10.37;93.47
45403;BME280;47427;51.976;5.326;2022-10-10T17:34:09;102001.63;;;10.29;93.76
45403;BME280;47427;51.976;5.326;2022-10-10T17:37:30;102005.16;;;10.12;93.90
45403;BME280;47427;51.976;5.326;2022-10-10T17:40:58;102018.66;;;10.02;94.00
45403;BME280;47427;51.976;5.326;2022-10-10T17:44:21;102028.13;;;9.98;94.07
45403;BME280;47427;51.976;5.326;2022-10-10T17:47:43;102036.53;;;9.91;94.08
45403;BME280;47427;51.976;5.326;2022-10-10T17:51:08;102032.41;;;9.96;93.96
45403;BME280;47427;51.976;5.326;2022-10-10T17:54:30;102051.47;;;10.11;93.39
45403;BME280;47427;51.976;5.326;2022-10-10T17:57:53;102047.41;;;10.00;93.10
45403;BME280;47427;51.976;5.326;2022-10-10T18:01:17;102060.53;;;9.82;93.29
45403;BME280;47427;51.976;5.326;2022-10-10T18:04:39;102065.13;;;9.68;93.55
45403;BME280;47427;51.976;5.326;2022-10-10T18:08:03;102078.50;;;9.57;93.47
45403;BME280;47427;51.976;5.326;2022-10-10T18:11:30;102070.03;;;9.44;94.04
45403;BME280;47427;51.976;5.326;2022-10-10T18:14:52;102084.63;;;9.39;93.85
45403;BME280;47427;51.976;5.326;2022-10-10T18:18:16;102091.44;;;9.36;94.23
45403;BME280;47427;51.976;5.326;2022-10-10T18:21:57;102079.22;;;9.36;94.17
45403;BME280;47427;51.976;5.326;2022-10-10T18:25:22;102094.06;;;9.36;94.15
45403;BME280;47427;51.976;5.326;2022-10-10T18:28:45;102107.97;;;9.35;94.28
45403;BME280;47427;51.976;5.326;2022-10-10T18:32:26;102096.28;;;9.28;94.30
45403;BME280;47427;51.976;5.326;2022-10-10T18:35:48;102111.59;;;9.20;94.42
45403;BME280;47427;51.976;5.326;2022-10-10T18:39:14;102104.00;;;9.08;94.66
45403;BME280;47427;51.976;5.326;2022-10-10T18:42:36;102113.16;;;9.00;94.59
45403;BME280;47427;51.976;5.326;2022-10-10T18:46:00;102117.91;;;8.91;94.77
45403;BME280;47427;51.976;5.326;2022-10-10T18:49:23;102128.16;;;8.86;94.88
45403;BME280;47427;51.976;5.326;2022-10-10T18:52:45;102132.31;;;8.83;95.41
45403;BME280;47427;51.976;5.326;2022-10-10T18:56:11;102132.03;;;8.78;95.25
45403;BME280;47427;51.976;5.326;2022-10-10T18:59:33;102132.56;;;8.71;95.12
45403;BME280;47427;51.976;5.326;2022-10-10T19:02:55;102136.81;;;8.69;95.41
45403;BME280;47427;51.976;5.326;2022-10-10T19:06:19;102141.78;;;8.64;95.55
45403;BME280;47427;51.976;5.326;2022-10-10T19:09:41;102147.91;;;8.65;95.48
45403;BME280;47427;51.976;5.326;2022-10-10T19:13:03;102153.72;;;8.59;95.74
45403;BME280;47427;51.976;5.326;2022-10-10T19:16:27;102161.09;;;8.66;95.61